Time;durP1;ratioP1;P1;durP2;ratioP2;P2;SDS_P1;SDS_P2;PMS_P1;PMS_P2;Temp;Humidity;BMP_temperature;BMP_pressure;BME280_temperature;BME280_humidity;BME280_pressure;Samples;Min_cycle;Max_cycle;Signal;HPM_P1;HPM_P2
2021/05/15 00:07:52;;;;;;;6.60;2.50;;;8.50;99.90;;;;;;20843093;28;20033;-80
2021/05/15 00:17:54;;;;;;;4.35;2.72;;;8.60;99.90;;;;;;20879066;28;20097;-79
2021/05/15 00:27:55;;;;;;;4.78;2.67;;;8.60;99.90;;;;;;20879075;28;20052;-78
2021/05/15 00:37:56;;;;;;;3.80;2.27;;;8.40;99.90;;;;;;20863864;28;20033;-79
2021/05/15 00:47:57;;;;;;;5.70;3.67;;;7.90;99.90;;;;;;20865252;28;20060;-78
2021/05/15 00:57:58;;;;;;;8.50;4.40;;;7.60;99.90;;;;;;20884919;28;20057;-79
2021/05/15 01:07:59;;;;;;;7.70;4.00;;;7.30;99.90;;;;;;20873447;28;20033;-79
2021/05/15 01:18:00;;;;;;;7.57;3.80;;;7.00;99.90;;;;;;20840742;28;20061;-79
2021/05/15 01:28:01;;;;;;;4.73;3.03;;;6.80;99.90;;;;;;20858140;28;20041;-79
2021/05/15 01:38:02;;;;;;;5.20;2.47;;;6.80;99.90;;;;;;20846864;28;20503;-79
2021/05/15 01:48:03;;;;;;;5.73;3.17;;;6.90;99.90;;;;;;20832032;28;20025;-80
2021/05/15 01:58:04;;;;;;;3.53;2.33;;;6.80;99.90;;;;;;20852015;28;20030;-79
2021/05/15 02:08:05;;;;;;;11.40;2.97;;;6.80;99.90;;;;;;20864543;28;20033;-79
2021/05/15 02:18:08;;;;;;;4.28;1.98;;;6.60;99.90;;;;;;20860567;28;20083;-80
2021/05/15 02:28:09;;;;;;;4.50;2.00;;;6.80;99.90;;;;;;20867047;28;20029;-79
2021/05/15 02:38:12;;;;;;;3.45;2.50;;;6.90;99.90;;;;;;20898842;28;20030;-80
2021/05/15 02:48:18;;;;;;;3.72;2.17;;;6.80;99.90;;;;;;20873162;28;20055;-80
2021/05/15 02:58:19;;;;;;;2.35;1.88;;;7.10;99.90;;;;;;20884533;28;20040;-80
2021/05/15 03:08:20;;;;;;;5.53;2.30;;;7.20;99.90;;;;;;20867205;28;20029;-80
2021/05/15 03:18:21;;;;;;;4.23;2.60;;;7.30;99.90;;;;;;20866038;28;20025;-79
2021/05/15 03:28:22;;;;;;;4.27;2.77;;;7.40;99.90;;;;;;20881180;28;20033;-80
2021/05/15 03:38:22;;;;;;;5.07;2.13;;;7.50;99.90;;;;;;20864046;28;20369;-80
2021/05/15 03:48:23;;;;;;;4.23;2.33;;;7.60;99.90;;;;;;20862519;28;20029;-80
2021/05/15 03:58:24;;;;;;;3.67;2.17;;;7.60;99.90;;;;;;20863341;28;20144;-80
2021/05/15 04:08:25;;;;;;;1.87;1.47;;;7.70;99.90;;;;;;20848688;28;20037;-80
2021/05/15 04:18:30;;;;;;;3.17;2.20;;;7.70;99.90;;;;;;20880567;28;20525;-80
2021/05/15 04:28:32;;;;;;;3.60;1.90;;;7.80;99.90;;;;;;20845531;28;20057;-80
2021/05/15 04:38:32;;;;;;;3.20;2.00;;;7.80;99.90;;;;;;20859936;28;20057;-81
2021/05/15 04:48:34;;;;;;;4.07;1.93;;;7.90;99.90;;;;;;20878107;28;20025;-79
2021/05/15 04:58:36;;;;;;;6.03;2.30;;;8.30;99.90;;;;;;20871006;28;20033;-80
2021/05/15 05:08:36;;;;;;;4.85;2.42;;;8.50;99.90;;;;;;20911881;22;20052;-79
2021/05/15 05:18:37;;;;;;;3.47;2.20;;;8.40;99.90;;;;;;20922304;28;20076;-79
2021/05/15 05:28:39;;;;;;;3.50;2.40;;;8.90;99.90;;;;;;20922236;28;20043;-80
2021/05/15 05:38:40;;;;;;;3.72;2.28;;;9.20;99.90;;;;;;20926864;28;20033;-80
2021/05/15 05:48:40;;;;;;;3.20;2.03;;;9.00;99.90;;;;;;20936968;28;20558;-80
2021/05/15 05:58:44;;;;;;;2.83;2.08;;;9.20;99.90;;;;;;20933849;28;20072;-79
2021/05/15 06:08:45;;;;;;;6.60;2.08;;;9.30;99.90;;;;;;20926446;28;20075;-79
2021/05/15 06:18:46;;;;;;;3.30;1.63;;;9.40;99.90;;;;;;20925014;28;20029;-77
2021/05/15 06:28:47;;;;;;;4.17;2.20;;;9.80;99.90;;;;;;20925204;28;20035;-78
2021/05/15 06:38:48;;;;;;;4.63;2.07;;;10.50;99.90;;;;;;20937480;28;20390;-78
2021/05/15 06:48:49;;;;;;;2.33;1.60;;;10.50;99.90;;;;;;20936969;28;20555;-78
2021/05/15 06:58:49;;;;;;;3.50;1.87;;;11.00;99.90;;;;;;20922736;28;20459;-79
2021/05/15 07:08:51;;;;;;;3.30;1.63;;;11.70;99.90;;;;;;20927897;28;20040;-77
2021/05/15 07:18:51;;;;;;;2.10;1.33;;;12.30;99.90;;;;;;20929105;28;20029;-78
2021/05/15 07:28:52;;;;;;;1.45;1.15;;;12.70;99.90;;;;;;20930794;28;20120;-78
2021/05/15 07:38:53;;;;;;;2.83;1.00;;;13.10;99.90;;;;;;20914692;28;20399;-77
2021/05/15 07:48:54;;;;;;;0.93;0.63;;;13.60;99.90;;;;;;20911426;28;20112;-79
2021/05/15 07:58:55;;;;;;;2.22;0.82;;;13.60;99.90;;;;;;20909759;28;20039;-78
2021/05/15 08:08:56;;;;;;;1.60;0.80;;;13.10;99.90;;;;;;20905081;28;20028;-77
2021/05/15 08:18:57;;;;;;;3.95;0.98;;;13.40;99.90;;;;;;20888373;28;20118;-77
2021/05/15 08:29:01;;;;;;;2.43;0.43;;;14.00;99.90;;;;;;20902682;28;20032;-78
2021/05/15 08:39:05;;;;;;;2.53;0.70;;;14.40;99.90;;;;;;20909031;28;20029;-77
2021/05/15 08:49:07;;;;;;;2.55;0.90;;;15.10;99.90;;;;;;20910456;28;20124;-77
2021/05/15 08:59:08;;;;;;;3.20;0.80;;;16.00;99.90;;;;;;20911108;28;20033;-78
2021/05/15 09:09:09;;;;;;;3.67;0.93;;;15.40;99.90;;;;;;20913792;28;20039;-79
2021/05/15 09:19:09;;;;;;;2.60;0.68;;;15.30;99.90;;;;;;20940815;28;20102;-78
2021/05/15 09:29:10;;;;;;;2.25;0.63;;;16.20;99.90;;;;;;20937277;28;20055;-77
2021/05/15 09:39:22;;;;;;;2.37;0.60;;;16.10;99.90;;;;;;20907523;28;20033;-79
2021/05/15 09:49:26;;;;;;;1.73;0.70;;;16.90;99.90;;;;;;20903013;28;20037;-77
2021/05/15 09:59:41;;;;;;;2.85;0.80;;;16.40;99.90;;;;;;20936061;28;20028;-77
2021/05/15 10:09:42;;;;;;;3.60;1.05;;;17.30;99.90;;;;;;20926251;28;20501;-78
2021/05/15 10:19:43;;;;;;;3.42;0.85;;;16.60;99.90;;;;;;20928817;28;20033;-77
2021/05/15 10:29:52;;;;;;;3.80;0.82;;;16.90;99.90;;;;;;20907494;28;20044;-77
2021/05/15 10:39:53;;;;;;;1.58;0.77;;;16.40;99.90;;;;;;20913333;28;20450;-77
2021/05/15 10:50:21;;;;;;;16.52;8.45;;;15.70;99.90;;;;;;20906895;28;20063;-77
2021/05/15 11:00:25;;;;;;;1.23;0.80;;;15.40;99.90;;;;;;20910413;28;20095;-76
2021/05/15 11:10:34;;;;;;;5.00;1.05;;;15.00;99.90;;;;;;20917352;22;20091;-78
2021/05/15 11:20:48;;;;;;;2.20;1.00;;;14.80;99.90;;;;;;20898480;28;20590;-77
2021/05/15 11:30:49;;;;;;;1.63;0.50;;;15.00;99.90;;;;;;20902311;28;20033;-77
2021/05/15 11:40:50;;;;;;;0.80;0.47;;;15.20;99.90;;;;;;20906964;28;20039;-77
2021/05/15 11:50:59;;;;;;;1.30;0.43;;;14.60;99.90;;;;;;20896983;28;20383;-77
2021/05/15 12:01:00;;;;;;;2.95;0.73;;;14.70;99.90;;;;;;20891598;28;20025;-77
2021/05/15 12:11:03;;;;;;;1.67;0.65;;;14.20;99.90;;;;;;20892945;28;20039;-76
2021/05/15 12:21:04;;;;;;;0.43;0.40;;;14.10;99.90;;;;;;20889212;28;20069;-77
2021/05/15 12:31:04;;;;;;;1.23;0.60;;;13.80;99.90;;;;;;20896356;28;20025;-77
2021/05/15 12:41:10;;;;;;;1.45;0.63;;;13.50;99.90;;;;;;20893524;28;20039;-77
2021/05/15 12:51:14;;;;;;;2.80;0.90;;;13.60;99.90;;;;;;20890905;28;20033;-77
2021/05/15 13:01:15;;;;;;;0.85;0.57;;;13.40;99.90;;;;;;20896571;28;20040;-77
2021/05/15 13:11:17;;;;;;;0.50;0.50;;;13.20;99.90;;;;;;20894771;28;20847;-77
2021/05/15 13:21:18;;;;;;;1.60;0.60;;;13.10;99.90;;;;;;20896192;28;20029;-77
2021/05/15 13:31:20;;;;;;;3.17;1.02;;;12.80;99.90;;;;;;20890539;28;20268;-78
2021/05/15 13:41:21;;;;;;;4.70;1.83;;;12.30;99.90;;;;;;20930366;28;20041;-78
2021/05/15 13:51:22;;;;;;;2.47;1.10;;;11.50;99.90;;;;;;20882787;28;20040;-77
2021/05/15 14:01:23;;;;;;;7.40;3.83;;;11.00;99.90;;;;;;20895906;28;20064;-77
2021/05/15 14:11:25;;;;;;;2.63;1.60;;;10.70;99.90;;;;;;20902195;28;20119;-77
2021/05/15 14:21:26;;;;;;;3.50;0.80;;;10.50;99.90;;;;;;20897228;28;20037;-77
2021/05/15 14:31:27;;;;;;;1.20;0.83;;;10.60;99.90;;;;;;20899866;28;20085;-78
2021/05/15 14:41:28;;;;;;;7.17;2.63;;;10.50;99.90;;;;;;20901012;28;20116;-78
2021/05/15 14:51:28;;;;;;;1.30;0.70;;;10.80;99.90;;;;;;20970161;28;20097;-78
2021/05/15 15:01:29;;;;;;;1.53;0.70;;;11.00;99.90;;;;;;20834061;28;20046;-79
2021/05/15 15:11:31;;;;;;;3.27;1.97;;;11.00;99.90;;;;;;20830591;28;20037;-79
2021/05/15 15:21:33;;;;;;;1.35;0.70;;;10.90;99.90;;;;;;20899881;28;20608;-77
2021/05/15 15:31:34;;;;;;;1.00;0.70;;;10.80;99.90;;;;;;20913159;28;20722;-78
2021/05/15 15:41:35;;;;;;;1.93;1.30;;;10.80;99.90;;;;;;20915445;28;20025;-79
2021/05/15 15:51:38;;;;;;;2.07;1.20;;;10.70;99.90;;;;;;20882517;28;20279;-80
2021/05/15 16:01:39;;;;;;;3.88;1.77;;;10.90;99.90;;;;;;20899661;28;20036;-79
2021/05/15 16:11:40;;;;;;;7.13;1.57;;;11.00;99.90;;;;;;20905537;28;20055;-77
2021/05/15 16:21:41;;;;;;;3.00;1.97;;;10.60;99.90;;;;;;20906388;28;20072;-77
2021/05/15 16:31:43;;;;;;;4.77;1.73;;;10.50;99.90;;;;;;20893451;28;20032;-78
2021/05/15 16:41:44;;;;;;;3.53;1.95;;;10.30;99.90;;;;;;20890598;28;20414;-78
2021/05/15 16:51:45;;;;;;;4.73;2.37;;;10.20;99.90;;;;;;20890132;28;20029;-79
2021/05/15 17:01:46;;;;;;;4.67;2.10;;;10.20;99.90;;;;;;20906549;28;20029;-78
2021/05/15 17:11:47;;;;;;;5.93;2.33;;;10.20;99.90;;;;;;20911334;22;20045;-75
2021/05/15 17:21:50;;;;;;;5.50;3.80;;;10.10;99.90;;;;;;20902233;28;20029;-78
2021/05/15 17:31:51;;;;;;;2.40;1.85;;;10.20;99.90;;;;;;20914479;28;20111;-77
2021/05/15 17:41:53;;;;;;;3.37;2.60;;;10.10;99.90;;;;;;20908916;28;20037;-76
2021/05/15 17:51:54;;;;;;;1.90;1.05;;;9.80;99.90;;;;;;20910756;28;20109;-76
2021/05/15 18:01:55;;;;;;;4.10;2.30;;;9.70;99.90;;;;;;20905813;28;20029;-74
2021/05/15 18:11:56;;;;;;;1.10;0.83;;;9.70;99.90;;;;;;20905152;28;20166;-76
2021/05/15 18:21:57;;;;;;;2.07;0.70;;;9.70;99.90;;;;;;20907241;28;20082;-77
2021/05/15 18:31:58;;;;;;;2.90;1.43;;;9.60;99.90;;;;;;20905520;28;20473;-76
2021/05/15 18:41:59;;;;;;;3.40;2.17;;;9.30;99.90;;;;;;20902966;28;20523;-77
2021/05/15 18:52:00;;;;;;;;;;;9.30;99.90;;;;;;20902555;28;20036;-77
2021/05/15 19:02:01;;;;;;;2.27;1.57;;;9.20;99.90;;;;;;20906811;28;20309;-76
2021/05/15 19:12:02;;;;;;;7.07;1.37;;;9.30;99.90;;;;;;20901358;28;20676;-77
2021/05/15 19:22:04;;;;;;;1.90;1.00;;;9.20;99.90;;;;;;20900192;28;20033;-77
2021/05/15 19:32:06;;;;;;;2.08;1.00;;;9.10;99.90;;;;;;20901815;28;20036;-77
2021/05/15 19:42:07;;;;;;;3.30;1.17;;;9.00;99.90;;;;;;20917197;28;20059;-75
2021/05/15 19:52:09;;;;;;;3.73;1.83;;;8.90;99.90;;;;;;20911581;28;20120;-75
2021/05/15 20:02:09;;;;;;;;;;;8.90;99.90;;;;;;20909747;28;20089;-77
2021/05/15 20:12:10;;;;;;;3.90;1.13;;;8.90;99.90;;;;;;20875474;28;19916;-76
2021/05/15 20:22:11;;;;;;;3.00;1.33;;;8.90;99.90;;;;;;20890075;28;20029;-76
2021/05/15 20:32:12;;;;;;;3.00;1.10;;;8.50;99.90;;;;;;20886536;28;20040;-77
2021/05/15 20:42:13;;;;;;;2.13;1.47;;;8.40;99.90;;;;;;20888317;28;20040;-76
2021/05/15 20:52:15;;;;;;;1.43;0.93;;;8.20;99.90;;;;;;20885866;28;20044;-76
2021/05/15 21:02:16;;;;;;;1.42;1.00;;;8.10;99.90;;;;;;20884935;28;20052;-77
2021/05/15 21:12:17;;;;;;;2.60;1.67;;;7.80;99.90;;;;;;20862760;28;20580;-76
2021/05/15 21:22:18;;;;;;;3.13;1.60;;;7.60;99.90;;;;;;20886954;28;20037;-77
2021/05/15 21:32:19;;;;;;;6.67;3.37;;;7.50;99.90;;;;;;20885576;28;20035;-76
2021/05/15 21:42:19;;;;;;;7.43;3.37;;;7.30;99.90;;;;;;20884901;28;20463;-76
2021/05/15 21:52:22;;;;;;;3.20;2.13;;;7.80;99.90;;;;;;20892373;28;20056;-77
2021/05/15 22:02:23;;;;;;;4.00;2.00;;;7.70;99.90;;;;;;20892698;28;20040;-76
2021/05/15 22:12:24;;;;;;;8.53;3.57;;;7.90;99.90;;;;;;20896458;28;20511;-78
2021/05/15 22:22:25;;;;;;;2.90;1.87;;;8.00;99.90;;;;;;20904181;28;20037;-78
2021/05/15 22:32:26;;;;;;;2.37;1.90;;;7.90;99.90;;;;;;20909507;28;20047;-76
2021/05/15 22:42:26;;;;;;;2.60;2.00;;;7.80;99.90;;;;;;20913502;28;20036;-77
2021/05/15 22:52:27;;;;;;;4.33;2.40;;;8.00;99.90;;;;;;20923111;28;20040;-78
2021/05/15 23:02:29;;;;;;;4.03;1.87;;;8.00;99.90;;;;;;20922723;28;20451;-77
2021/05/15 23:12:30;;;;;;;4.82;2.38;;;7.90;99.90;;;;;;20919370;28;20056;-77
2021/05/15 23:22:31;;;;;;;2.80;2.00;;;7.90;99.90;;;;;;20919258;28;20033;-77
2021/05/15 23:32:32;;;;;;;3.33;1.77;;;7.90;99.90;;;;;;20918451;28;20611;-78
2021/05/15 23:42:33;;;;;;;2.73;2.03;;;8.00;99.90;;;;;;20870135;28;20476;-77
2021/05/15 23:52:34;;;;;;;5.57;2.23;;;8.10;99.90;;;;;;20900638;28;20025;-78
